Time;durP1;ratioP1;P1;durP2;ratioP2;P2;SDS_P1;SDS_P2;PMS_P1;PMS_P2;Temp;Humidity;BMP_temperature;BMP_pressure;BME280_temperature;BME280_humidity;BME280_pressure;Samples;Min_cycle;Max_cycle;Signal;HPM_P1;HPM_P2
2022/04/09 00:01:48;;;;;;;6.47;3.05;;;;;;;7.24;63.31;99228.31;5064732;28;20492;-72
2022/04/09 00:04:14;;;;;;;7.38;3.22;;;;;;;7.20;62.86;99226.03;5068375;28;20045;-72
2022/04/09 00:06:41;;;;;;;4.07;2.80;;;;;;;7.35;62.85;99235.50;5068594;28;20064;-72
2022/04/09 00:09:07;;;;;;;9.43;3.40;;;;;;;7.23;62.40;99225.84;5067831;28;20471;-72
2022/04/09 00:11:35;;;;;;;8.57;3.20;;;;;;;7.32;62.56;99235.69;5069284;28;20062;-72
2022/04/09 00:14:01;;;;;;;5.95;2.85;;;;;;;7.31;62.15;99236.63;5068305;28;20124;-72
2022/04/09 00:16:27;;;;;;;9.82;2.80;;;;;;;7.22;62.29;99238.03;5068400;28;20558;-72
2022/04/09 00:18:53;;;;;;;4.78;2.90;;;;;;;7.04;62.93;99238.31;5067387;28;20044;-72
2022/04/09 00:21:20;;;;;;;5.93;3.25;;;;;;;6.87;63.50;99248.94;5067808;28;20049;-72
2022/04/09 00:23:46;;;;;;;6.25;3.33;;;;;;;7.23;62.33;99237.09;5065282;28;20121;-72
2022/04/09 00:26:13;;;;;;;7.57;3.25;;;;;;;6.99;62.87;99245.56;5068095;28;20049;-72
2022/04/09 00:28:40;;;;;;;7.20;2.40;;;;;;;6.65;63.73;99250.19;5067665;28;20044;-72
2022/04/09 00:31:07;;;;;;;6.80;3.15;;;;;;;6.92;62.96;99252.91;5067968;28;20048;-71
2022/04/09 00:33:34;;;;;;;8.52;2.47;;;;;;;7.18;62.01;99248.72;5068494;28;20040;-71
2022/04/09 00:36:01;;;;;;;10.30;2.60;;;;;;;7.20;61.91;99262.53;5066550;28;20063;-71
2022/04/09 00:38:29;;;;;;;6.72;2.45;;;;;;;7.15;62.08;99261.97;5067321;28;20139;-71
2022/04/09 00:40:56;;;;;;;5.00;2.58;;;;;;;6.81;63.31;99269.19;5066551;28;20045;-71
2022/04/09 00:43:22;;;;;;;7.78;2.58;;;;;;;6.97;62.65;99281.31;5066957;28;20471;-71
2022/04/09 00:45:50;;;;;;;4.95;2.42;;;;;;;7.20;61.91;99278.16;5067080;28;20036;-71
2022/04/09 00:48:20;;;;;;;8.48;2.42;;;;;;;6.89;63.04;99276.56;5065685;28;20049;-71
2022/04/09 00:50:46;;;;;;;11.90;2.55;;;;;;;6.91;63.00;99282.50;5052070;28;20127;-71
2022/04/09 00:53:15;;;;;;;6.80;2.53;;;;;;;6.90;63.22;99286.06;5060194;28;20102;-71
2022/04/09 00:58:38;;;;;;;4.65;2.05;;;;;;;6.27;65.35;99301.06;5016401;28;20051;-71
2022/04/09 01:01:06;;;;;;;6.10;2.20;;;;;;;6.42;65.02;99300.19;5066483;28;20770;-72
2022/04/09 01:03:35;;;;;;;8.65;2.70;;;;;;;6.76;63.99;99301.69;5066875;28;20044;-72
2022/04/09 01:06:02;;;;;;;7.75;2.10;;;;;;;7.00;63.22;99304.59;5066957;28;20098;-72
2022/04/09 01:08:28;;;;;;;7.25;2.33;;;;;;;6.51;64.84;99307.47;5066291;28;20045;-71
2022/04/09 01:10:54;;;;;;;7.57;2.65;;;;;;;6.49;64.96;99304.13;5064475;28;20125;-71
2022/04/09 01:13:21;;;;;;;8.63;2.50;;;;;;;6.76;64.39;99307.69;5058680;28;20561;-71
2022/04/09 01:15:48;;;;;;;6.68;2.30;;;;;;;6.84;64.15;99312.47;5064256;28;20044;-71
2022/04/09 01:18:16;;;;;;;8.63;2.40;;;;;;;6.68;64.71;99314.31;5066729;28;20044;-71
2022/04/09 01:20:43;;;;;;;5.07;2.10;;;;;;;6.45;65.71;99325.19;5061147;28;20114;-71
2022/04/09 01:23:10;;;;;;;10.35;2.88;;;;;;;6.44;66.05;99318.31;5058291;28;20045;-71
2022/04/09 01:25:37;;;;;;;9.40;2.15;;;;;;;6.03;67.61;99323.25;5064833;28;20602;-71
2022/04/09 01:28:05;;;;;;;5.60;2.05;;;;;;;6.26;66.76;99325.41;5064353;28;20106;-71
2022/04/09 01:30:31;;;;;;;7.53;2.17;;;;;;;6.16;67.10;99317.28;5066072;28;20044;-71
2022/04/09 01:32:57;;;;;;;5.97;2.00;;;;;;;5.99;68.16;99335.59;5065564;28;20053;-71
2022/04/09 01:35:24;;;;;;;6.85;2.10;;;;;;;5.83;68.68;99338.19;5066956;28;20053;-71
2022/04/09 01:37:50;;;;;;;7.80;2.00;;;;;;;5.71;69.87;99344.03;5066965;28;20609;-71
2022/04/09 01:40:18;;;;;;;8.07;2.28;;;;;;;5.58;70.10;99350.81;5070179;28;20048;-71
2022/04/09 01:42:44;;;;;;;9.95;3.05;;;;;;;5.79;69.46;99346.22;5070251;28;20113;-71
2022/04/09 01:45:10;;;;;;;6.78;1.90;;;;;;;6.07;68.62;99351.63;5066758;28;20474;-71
2022/04/09 01:47:41;;;;;;;12.73;2.50;;;;;;;5.95;68.67;99359.28;5070617;28;20561;-72
2022/04/09 01:50:09;;;;;;;8.50;2.00;;;;;;;6.07;68.35;99358.59;5070241;28;20041;-71
2022/04/09 01:52:35;;;;;;;5.32;1.70;;;;;;;5.87;68.81;99368.31;5070700;28;20416;-71
2022/04/09 01:55:02;;;;;;;5.95;2.15;;;;;;;5.95;68.96;99367.91;5069322;28;20075;-71
2022/04/09 01:57:29;;;;;;;9.15;1.92;;;;;;;5.98;69.13;99370.34;5068372;28;20118;-71
2022/04/09 01:59:56;;;;;;;7.75;2.20;;;;;;;5.79;69.60;99378.28;5070201;28;20093;-71
2022/04/09 02:02:22;;;;;;;5.43;2.13;;;;;;;5.85;69.61;99383.13;5069526;28;20102;-71
2022/04/09 02:04:48;;;;;;;5.72;1.80;;;;;;;6.01;69.30;99379.75;5065528;28;20106;-71
2022/04/09 02:07:15;;;;;;;7.80;2.30;;;;;;;5.67;70.15;99389.34;5065801;28;20037;-71
2022/04/09 02:09:41;;;;;;;7.85;1.90;;;;;;;5.53;70.94;99388.38;5070440;28;20049;-71
2022/04/09 02:12:08;;;;;;;7.80;2.28;;;;;;;5.65;70.50;99401.59;5070333;28;20056;-71
2022/04/09 02:14:35;;;;;;;3.75;1.75;;;;;;;5.57;71.00;99406.34;5071240;28;20486;-71
2022/04/09 02:17:02;;;;;;;7.85;2.63;;;;;;;5.55;71.27;99400.38;5069053;28;20489;-71
2022/04/09 02:19:28;;;;;;;9.55;2.17;;;;;;;5.63;70.80;99410.38;5069696;28;20389;-71
2022/04/09 02:21:54;;;;;;;15.32;2.25;;;;;;;5.72;70.66;99415.09;5065117;28;20048;-71
2022/04/09 02:24:21;;;;;;;10.43;2.35;;;;;;;5.53;71.46;99417.81;5067932;28;20048;-71
2022/04/09 02:26:47;;;;;;;6.38;2.40;;;;;;;5.42;71.42;99420.13;5069607;28;20106;-71
2022/04/09 02:29:13;;;;;;;10.13;2.65;;;;;;;5.75;70.42;99426.19;5067870;28;20052;-71
2022/04/09 02:31:41;;;;;;;7.57;2.70;;;;;;;5.33;71.85;99423.19;5069478;28;20048;-71
2022/04/09 02:34:08;;;;;;;8.57;2.45;;;;;;;5.65;70.78;99431.94;5068974;28;20059;-71
2022/04/09 02:36:36;;;;;;;7.80;1.90;;;;;;;5.82;70.17;99443.13;5069655;28;20055;-71
2022/04/09 02:39:02;;;;;;;15.43;2.17;;;;;;;5.34;71.59;99438.72;5069103;28;20094;-71
2022/04/09 02:41:29;;;;;;;8.98;2.78;;;;;;;5.21;72.27;99449.81;5069808;28;20074;-71
2022/04/09 02:43:56;;;;;;;20.35;3.05;;;;;;;4.97;73.51;99451.03;5065390;28;20041;-71
2022/04/09 02:46:22;;;;;;;5.25;2.40;;;;;;;5.27;73.09;99465.09;5066960;28;20500;-71
2022/04/09 02:48:50;;;;;;;10.95;2.72;;;;;;;5.19;73.04;99464.63;5061338;28;20044;-71
2022/04/09 02:51:17;;;;;;;9.27;2.50;;;;;;;4.95;74.45;99468.47;5069470;28;20541;-71
2022/04/09 02:53:43;;;;;;;8.10;2.90;;;;;;;5.00;74.02;99477.69;5070094;28;20076;-71
2022/04/09 02:56:09;;;;;;;8.52;2.88;;;;;;;5.00;74.30;99489.84;5068028;28;20044;-71
2022/04/09 02:58:37;;;;;;;6.88;2.60;;;;;;;5.06;74.04;99477.41;5069436;28;20048;-71
2022/04/09 03:01:03;;;;;;;6.68;2.75;;;;;;;5.10;74.18;99485.91;5068717;28;20090;-72
2022/04/09 03:03:29;;;;;;;8.85;3.20;;;;;;;5.03;74.53;99493.13;5065958;28;20555;-71
2022/04/09 03:05:57;;;;;;;5.10;2.60;;;;;;;5.19;74.04;99493.22;5052577;28;20489;-71
2022/04/09 03:08:23;;;;;;;9.95;2.80;;;;;;;5.10;74.22;99502.28;5065476;28;20106;-71
2022/04/09 03:10:50;;;;;;;11.80;4.18;;;;;;;5.02;74.79;99509.66;5069266;28;20041;-71
2022/04/09 03:13:16;;;;;;;8.43;3.25;;;;;;;5.34;72.82;99506.31;5064819;28;20462;-71
2022/04/09 03:15:42;;;;;;;11.85;2.92;;;;;;;5.18;73.69;99520.09;5068801;28;20736;-71
2022/04/09 03:18:10;;;;;;;5.32;2.90;;;;;;;5.41;72.58;99519.81;5068868;28;20611;-71
2022/04/09 03:20:37;;;;;;;10.38;2.90;;;;;;;5.34;72.79;99527.09;5069301;28;20049;-71
2022/04/09 03:23:05;;;;;;;8.77;2.92;;;;;;;5.46;72.33;99530.84;5063086;28;20064;-71
2022/04/09 03:25:31;;;;;;;6.68;2.75;;;;;;;5.23;72.94;99537.19;5061121;28;20087;-71
2022/04/09 03:27:58;;;;;;;8.27;3.28;;;;;;;5.13;73.09;99548.94;5068737;28;20052;-71
2022/04/09 03:30:24;;;;;;;8.10;3.35;;;;;;;5.31;72.75;99557.59;5066838;28;20482;-71
2022/04/09 03:32:50;;;;;;;9.55;3.00;;;;;;;5.32;72.93;99554.91;5067144;28;20048;-71
2022/04/09 03:35:17;;;;;;;5.55;3.05;;;;;;;4.97;73.93;99560.13;5059255;28;20551;-71
2022/04/09 03:37:45;;;;;;;11.43;3.30;;;;;;;5.17;73.42;99563.47;5059154;28;20094;-71
2022/04/09 03:40:13;;;;;;;7.07;3.00;;;;;;;5.13;73.40;99568.88;5068253;28;20048;-71
2022/04/09 03:42:40;;;;;;;20.88;4.18;;;;;;;5.25;72.61;99566.53;5068599;28;20072;-71
2022/04/09 03:45:07;;;;;;;6.55;2.80;;;;;;;4.90;74.25;99569.97;5067591;28;20052;-71
2022/04/09 03:47:34;;;;;;;9.25;3.00;;;;;;;4.73;75.29;99569.94;5067358;28;20052;-72
2022/04/09 03:50:00;;;;;;;7.78;3.20;;;;;;;5.13;74.08;99582.72;5068512;28;20393;-72
2022/04/09 03:52:27;;;;;;;11.82;4.00;;;;;;;4.91;74.62;99585.47;5068203;28;20094;-72
2022/04/09 03:54:53;;;;;;;9.65;3.88;;;;;;;5.00;74.17;99583.34;5068319;28;20072;-72
2022/04/09 03:57:21;;;;;;;11.57;3.42;;;;;;;5.09;73.61;99585.53;5063010;28;20069;-72
2022/04/09 03:59:48;;;;;;;11.93;4.00;;;;;;;5.16;73.54;99586.91;5062214;28;20461;-72
2022/04/09 04:02:15;;;;;;;10.15;3.72;;;;;;;5.05;73.29;99596.97;5067142;28;20297;-72
2022/04/09 04:04:42;;;;;;;12.60;3.20;;;;;;;4.69;74.97;99596.94;5066863;28;20420;-72
2022/04/09 04:07:09;;;;;;;8.30;4.28;;;;;;;4.98;74.36;99593.84;5068457;28;20132;-72
2022/04/09 04:09:36;;;;;;;7.53;3.80;;;;;;;5.21;73.20;99603.16;5068444;28;20048;-72
2022/04/09 04:12:02;;;;;;;11.13;3.92;;;;;;;4.75;74.21;99610.47;5065467;28;20077;-72
2022/04/09 04:14:30;;;;;;;8.32;3.80;;;;;;;4.61;74.81;99612.88;5064270;28;20053;-72
2022/04/09 04:16:57;;;;;;;12.98;4.50;;;;;;;5.04;73.35;99616.91;5067362;28;20044;-72
2022/04/09 04:19:23;;;;;;;11.13;3.78;;;;;;;5.21;72.98;99618.75;5067463;28;20080;-72
2022/04/09 04:21:49;;;;;;;13.90;4.15;;;;;;;5.21;72.80;99623.94;5063535;28;20044;-71
2022/04/09 04:24:16;;;;;;;16.20;4.70;;;;;;;5.46;71.67;99623.59;5059887;28;20048;-71
2022/04/09 04:26:42;;;;;;;11.02;4.38;;;;;;;5.27;72.47;99629.69;5068041;28;20064;-71
2022/04/09 04:29:08;;;;;;;16.27;4.60;;;;;;;5.34;71.94;99643.22;5066188;28;20508;-71
2022/04/09 04:31:36;;;;;;;9.63;3.90;;;;;;;5.30;72.16;99647.72;5067499;28;20142;-71
2022/04/09 04:34:02;;;;;;;10.20;4.25;;;;;;;5.07;73.31;99652.28;5067569;28;20059;-72
2022/04/09 04:36:29;;;;;;;12.48;4.00;;;;;;;5.17;73.28;99658.78;5066566;28;20090;-72
2022/04/09 04:38:55;;;;;;;10.70;4.07;;;;;;;5.34;71.63;99667.47;5064713;28;20102;-72
2022/04/09 04:41:22;;;;;;;20.50;4.68;;;;;;;5.46;71.62;99660.84;5067490;28;20146;-72
2022/04/09 04:43:51;;;;;;;9.77;4.40;;;;;;;5.31;72.02;99671.97;5067225;28;20044;-72
2022/04/09 04:46:18;;;;;;;8.65;4.03;;;;;;;5.25;72.17;99672.22;5065280;28;20091;-72
2022/04/09 04:48:46;;;;;;;12.40;3.78;;;;;;;5.17;72.08;99679.56;5066155;28;20561;-72
2022/04/09 04:51:12;;;;;;;7.65;3.72;;;;;;;5.34;72.00;99675.25;5067603;28;20503;-72
2022/04/09 04:53:38;;;;;;;14.93;4.07;;;;;;;4.91;74.01;99684.16;5063438;28;20549;-72
2022/04/09 04:56:05;;;;;;;8.77;4.18;;;;;;;4.78;74.27;99688.25;5066479;28;20048;-72
2022/04/09 04:58:31;;;;;;;15.15;4.28;;;;;;;4.84;74.44;99695.75;5050244;28;20045;-72
2022/04/09 05:00:58;;;;;;;10.52;3.65;;;;;;;4.88;74.09;99694.69;5055302;28;20458;-72
2022/04/09 05:03:24;;;;;;;12.57;4.13;;;;;;;5.38;72.61;99694.16;5061675;28;20044;-72
2022/04/09 05:05:52;;;;;;;10.20;4.30;;;;;;;5.21;72.17;99696.69;5067440;28;20040;-72
2022/04/09 05:08:18;;;;;;;9.15;3.92;;;;;;;5.14;73.16;99703.91;5066090;28;20044;-72
2022/04/09 05:10:44;;;;;;;13.82;3.70;;;;;;;5.18;72.78;99707.22;5066575;28;20105;-72
2022/04/09 05:13:10;;;;;;;9.43;3.50;;;;;;;5.21;72.70;99712.28;5063465;28;20044;-72
2022/04/09 05:15:37;;;;;;;8.50;3.53;;;;;;;5.22;72.76;99724.34;5067147;28;20484;-72
2022/04/09 05:18:03;;;;;;;15.55;3.45;;;;;;;5.10;72.93;99720.56;5066034;28;20040;-72
2022/04/09 05:20:30;;;;;;;7.82;3.55;;;;;;;4.87;73.83;99739.78;5066251;28;20491;-72
2022/04/09 05:22:57;;;;;;;14.15;4.07;;;;;;;4.94;74.20;99731.72;5050646;28;20077;-72
2022/04/09 05:25:25;;;;;;;7.13;4.03;;;;;;;5.05;73.30;99735.53;5058746;28;20464;-72
2022/04/09 05:27:51;;;;;;;7.75;3.60;;;;;;;5.21;72.96;99743.47;5054122;28;20562;-72
2022/04/09 05:30:19;;;;;;;11.63;3.42;;;;;;;5.32;72.35;99752.44;5065278;28;20708;-72
2022/04/09 05:32:46;;;;;;;10.48;3.45;;;;;;;5.27;73.50;99757.03;5066113;28;20073;-72
2022/04/09 05:35:12;;;;;;;11.52;3.67;;;;;;;5.33;72.98;99769.72;5066330;28;20055;-72
2022/04/09 05:37:42;;;;;;;11.98;3.25;;;;;;;5.68;72.27;99764.66;5066845;28;20510;-72
2022/04/09 05:40:11;;;;;;;8.10;3.40;;;;;;;5.95;71.63;99773.78;5066242;28;20170;-72
2022/04/09 05:42:38;;;;;;;5.50;3.03;;;;;;;6.03;71.10;99771.66;5066879;28;20480;-72
2022/04/09 05:45:05;;;;;;;8.77;3.95;;;;;;;6.16;71.11;99784.94;5066152;28;20118;-72
2022/04/09 05:47:31;;;;;;;8.63;3.10;;;;;;;5.82;71.46;99785.66;5065226;28;20181;-72
2022/04/09 05:49:58;;;;;;;9.05;3.55;;;;;;;6.10;70.64;99793.84;5065700;28;20052;-72
2022/04/09 05:52:24;;;;;;;9.98;3.95;;;;;;;6.21;70.44;99806.34;5066169;28;20048;-72
2022/04/09 05:54:50;;;;;;;9.20;3.92;;;;;;;6.33;69.78;99808.34;5064022;28;20102;-72
2022/04/09 05:57:18;;;;;;;6.45;3.35;;;;;;;6.41;69.28;99798.41;5049739;28;20110;-72
2022/04/09 05:59:44;;;;;;;5.82;3.30;;;;;;;6.67;68.44;99810.13;5066299;28;20463;-72
2022/04/09 06:02:11;;;;;;;5.32;2.83;;;;;;;6.96;67.44;99812.09;5066624;28;20407;-72
2022/04/09 06:04:37;;;;;;;7.78;3.33;;;;;;;7.04;67.06;99815.16;5065630;28;20447;-72
2022/04/09 06:07:04;;;;;;;10.70;3.70;;;;;;;6.79;68.23;99831.22;5065094;28;20075;-72
2022/04/09 06:09:30;;;;;;;10.27;3.80;;;;;;;7.10;67.35;99833.06;5062211;28;20087;-72
2022/04/09 06:11:57;;;;;;;7.47;3.70;;;;;;;7.11;66.92;99845.19;5066158;28;20132;-71
2022/04/09 06:14:25;;;;;;;7.72;3.15;;;;;;;6.71;68.08;99843.78;5065842;28;20044;-71
2022/04/09 06:16:51;;;;;;;10.30;3.80;;;;;;;6.99;67.17;99858.00;5064837;28;20469;-71
2022/04/09 06:19:17;;;;;;;8.18;3.28;;;;;;;7.52;66.09;99860.44;5065469;28;20052;-71
2022/04/09 06:21:44;;;;;;;7.85;3.20;;;;;;;8.00;64.82;99864.78;5064173;28;20052;-71
2022/04/09 06:24:10;;;;;;;9.18;3.25;;;;;;;8.10;64.21;99863.34;5063973;28;20056;-71
2022/04/09 06:26:36;;;;;;;8.15;3.05;;;;;;;8.55;61.95;99867.78;5069251;28;20453;-71
2022/04/09 06:29:03;;;;;;;6.97;3.50;;;;;;;8.78;60.76;99875.16;5069612;28;20044;-71
2022/04/09 06:31:31;;;;;;;4.82;2.80;;;;;;;8.04;62.53;99868.91;5068403;28;20115;-71
2022/04/09 06:34:00;;;;;;;7.97;2.45;;;;;;;7.84;62.74;99873.44;5067362;28;20102;-71
2022/04/09 06:36:27;;;;;;;9.35;2.80;;;;;;;8.20;63.04;99888.84;5070097;28;20053;-71
2022/04/09 06:38:54;;;;;;;6.40;3.20;;;;;;;8.06;62.88;99886.16;5069224;28;20135;-71
2022/04/09 06:41:20;;;;;;;5.70;3.25;;;;;;;7.48;63.77;99903.25;5069356;28;20050;-71
2022/04/09 06:43:47;;;;;;;9.43;3.05;;;;;;;7.44;64.06;99901.72;5070210;28;20049;-71
2022/04/09 06:46:14;;;;;;;4.07;2.17;;;;;;;7.70;63.98;99899.44;5068354;28;20044;-71
2022/04/09 06:48:42;;;;;;;7.25;2.90;;;;;;;8.11;62.19;99897.22;5069885;28;20044;-71
2022/04/09 06:51:08;;;;;;;9.02;3.05;;;;;;;8.32;61.23;99903.88;5070395;28;20044;-71
2022/04/09 06:53:35;;;;;;;10.02;3.88;;;;;;;8.41;61.11;99905.16;5069809;28;20102;-71
2022/04/09 06:56:01;;;;;;;7.22;2.70;;;;;;;8.39;61.39;99914.00;5067758;28;20504;-72
2022/04/09 06:58:28;;;;;;;6.68;1.75;;;;;;;8.06;60.96;99906.22;5069750;28;20671;-71
2022/04/09 07:00:54;;;;;;;7.50;3.00;;;;;;;8.73;60.03;99921.63;5068976;28;20094;-72
2022/04/09 07:03:20;;;;;;;6.35;2.60;;;;;;;8.80;59.70;99918.56;5070441;28;20037;-69
2022/04/09 07:05:48;;;;;;;8.52;2.28;;;;;;;8.50;60.08;99917.69;5070130;28;20651;-69
2022/04/09 07:08:14;;;;;;;4.60;2.30;;;;;;;7.91;62.01;99931.38;5070216;28;20117;-69
2022/04/09 07:10:41;;;;;;;8.38;2.67;;;;;;;7.82;62.76;99939.72;5069061;28;20117;-69
2022/04/09 07:13:07;;;;;;;5.90;2.63;;;;;;;8.02;61.53;99936.03;5066782;28;20048;-69
2022/04/09 07:15:34;;;;;;;10.52;3.00;;;;;;;7.98;61.47;99945.78;5066620;28;20080;-69
2022/04/09 07:18:00;;;;;;;9.07;2.72;;;;;;;8.28;60.78;99943.28;5079844;28;20126;-69
2022/04/09 07:20:26;;;;;;;5.40;2.15;;;;;;;7.89;61.41;99948.91;5067053;28;20830;-69
2022/04/09 07:22:54;;;;;;;9.10;2.60;;;;;;;7.68;61.22;99950.88;5068032;28;20044;-69
2022/04/09 07:25:20;;;;;;;8.70;2.80;;;;;;;7.57;62.65;99955.81;5067956;28;20072;-69
2022/04/09 07:27:48;;;;;;;6.95;2.65;;;;;;;8.49;61.42;99968.28;5068379;28;20049;-69
2022/04/09 07:30:17;;;;;;;6.93;2.40;;;;;;;9.08;60.56;99966.66;5067540;28;20052;-69
2022/04/09 07:32:44;;;;;;;8.82;2.33;;;;;;;9.28;57.59;99958.47;5068507;28;20058;-70
2022/04/09 07:35:11;;;;;;;6.43;2.35;;;;;;;9.43;58.11;99975.06;5069383;28;20106;-70
2022/04/09 07:37:41;;;;;;;5.40;2.20;;;;;;;9.52;56.22;99972.75;5068718;28;20044;-69
2022/04/09 07:40:11;;;;;;;10.10;2.53;;;;;;;9.63;58.37;99980.81;5069038;28;20050;-70
2022/04/09 07:42:37;;;;;;;7.07;2.58;;;;;;;10.18;54.80;99975.69;5068634;28;20041;-69
2022/04/09 07:45:05;;;;;;;6.68;2.50;;;;;;;9.30;55.34;99988.03;5068321;28;20041;-69
2022/04/09 07:47:31;;;;;;;5.03;1.80;;;;;;;9.18;55.48;99992.19;5068789;28;21024;-69
2022/04/09 07:50:00;;;;;;;11.05;2.80;;;;;;;8.84;55.01;99996.81;5068247;28;20036;-69
2022/04/09 07:52:27;;;;;;;7.93;2.08;;;;;;;8.56;55.26;99994.91;5067971;28;20052;-69
2022/04/09 07:54:57;;;;;;;7.60;2.50;;;;;;;8.26;56.11;99998.22;5068631;28;20106;-69
2022/04/09 07:57:24;;;;;;;6.20;2.38;;;;;;;8.16;56.23;99997.03;5059051;28;20049;-69
2022/04/09 07:59:51;;;;;;;6.88;2.45;;;;;;;8.47;55.76;100006.69;5067371;28;20045;-70
2022/04/09 08:02:17;;;;;;;8.52;2.58;;;;;;;9.28;55.56;100013.41;5068867;28;20086;-70
2022/04/09 08:04:43;;;;;;;11.52;2.45;;;;;;;9.79;53.50;100006.91;5066611;28;20048;-70
2022/04/09 08:07:10;;;;;;;7.10;1.98;;;;;;;9.93;52.73;100003.47;5069360;28;20630;-70
2022/04/09 08:09:36;;;;;;;6.75;2.15;;;;;;;10.80;51.25;100007.59;5067936;28;20515;-71
2022/04/09 08:12:02;;;;;;;6.72;1.88;;;;;;;10.80;49.80;100014.59;5068842;28;20048;-70
2022/04/09 08:14:32;;;;;;;4.80;1.90;;;;;;;11.35;48.79;100027.59;5068660;28;20040;-70
2022/04/09 08:16:58;;;;;;;9.07;2.05;;;;;;;10.34;49.87;100019.28;5068013;28;20138;-70
2022/04/09 08:19:25;;;;;;;5.68;1.95;;;;;;;9.79;51.08;100031.28;5067437;28;20077;-70
2022/04/09 08:21:52;;;;;;;10.85;2.33;;;;;;;9.88;51.51;100031.69;5068423;28;20048;-72
2022/04/09 08:24:18;;;;;;;3.80;1.73;;;;;;;10.36;50.76;100033.13;5068032;28;20454;-70
2022/04/09 08:26:44;;;;;;;10.98;2.03;;;;;;;10.00;49.04;100039.66;5068584;28;20121;-70
2022/04/09 08:29:15;;;;;;;4.95;1.88;;;;;;;9.60;48.80;100043.81;5068026;28;20053;-70
2022/04/09 08:31:46;;;;;;;6.20;2.08;;;;;;;10.04;49.38;100040.31;5068205;28;20044;-69
2022/04/09 08:34:12;;;;;;;8.13;2.55;;;;;;;10.43;48.76;100048.38;5067607;28;20055;-71
2022/04/09 08:36:39;;;;;;;7.97;2.28;;;;;;;11.01;45.92;100026.38;5065299;28;20420;-71
2022/04/09 08:39:05;;;;;;;6.43;1.83;;;;;;;11.36;45.68;100052.91;5066581;28;20482;-71
2022/04/09 08:41:32;;;;;;;9.13;1.95;;;;;;;11.77;44.25;100052.81;5067610;28;20413;-70
2022/04/09 08:43:58;;;;;;;4.95;2.05;;;;;;;11.78;44.75;100044.00;5067925;28;20519;-70
2022/04/09 08:46:27;;;;;;;6.30;2.08;;;;;;;12.23;44.97;100046.13;5066066;28;20601;-71
2022/04/09 08:48:56;;;;;;;4.38;1.75;;;;;;;13.21;43.69;100046.09;5067258;28;20040;-71
2022/04/09 08:51:22;;;;;;;6.53;1.75;;;;;;;12.60;40.98;100049.66;5067437;28;20071;-70
2022/04/09 08:53:50;;;;;;;6.03;2.35;;;;;;;12.15;41.45;100059.78;5067491;28;20090;-70
2022/04/09 08:56:18;;;;;;;3.80;1.73;;;;;;;11.29;42.82;100059.50;5067344;28;20570;-70
2022/04/09 08:58:44;;;;;;;7.78;2.10;;;;;;;10.94;46.16;100065.22;5066995;28;20045;-70
2022/04/09 09:01:12;;;;;;;6.45;2.17;;;;;;;10.78;45.62;100066.31;5067040;28;20045;-70
2022/04/09 09:03:39;;;;;;;5.95;2.20;;;;;;;11.33;45.56;100061.00;5067066;28;20484;-70
2022/04/09 09:06:25;;;;;;;6.00;1.80;;;;;;;11.20;45.74;100066.19;5066591;28;20048;-71
2022/04/09 09:08:52;;;;;;;7.80;2.20;;;;;;;11.90;44.42;100065.00;5066642;28;20044;-72
2022/04/09 09:11:19;;;;;;;5.55;1.92;;;;;;;13.18;41.98;100059.47;5067148;28;20044;-72
2022/04/09 09:13:47;;;;;;;5.05;1.80;;;;;;;14.02;40.30;100064.53;5066742;28;20048;-71
2022/04/09 09:16:22;;;;;;;6.45;1.75;;;;;;;14.26;40.52;100060.03;5066466;28;20047;-71
2022/04/09 09:18:51;;;;;;;4.45;1.65;;;;;;;13.70;39.54;100072.25;5058710;28;20040;-71
2022/04/09 09:21:23;;;;;;;5.70;1.77;;;;;;;13.03;41.07;100069.28;5067377;28;20071;-71
2022/04/09 09:23:50;;;;;;;7.90;1.88;;;;;;;12.73;40.05;100070.63;5067574;28;20044;-71
2022/04/09 09:26:20;;;;;;;5.95;1.75;;;;;;;11.29;42.03;100072.63;5067024;28;20424;-71
2022/04/09 09:28:55;;;;;;;6.65;1.95;;;;;;;10.39;44.80;100074.88;5065872;28;20554;-69
2022/04/09 09:31:39;;;;;;;6.40;2.05;;;;;;;9.85;46.84;100084.25;5067015;28;20048;-69
2022/04/09 09:34:08;;;;;;;7.80;1.90;;;;;;;10.18;46.97;100084.88;5061739;28;20041;-69
2022/04/09 09:36:38;;;;;;;5.97;1.73;;;;;;;10.46;45.85;100071.78;5066320;28;20064;-69
2022/04/09 09:39:05;;;;;;;4.07;1.85;;;;;;;11.26;44.67;100070.22;5065444;28;20052;-69
2022/04/09 09:41:32;;;;;;;5.25;2.30;;;;;;;12.60;45.79;100060.97;5065581;28;20094;-71
2022/04/09 09:44:06;;;;;;;7.57;2.28;;;;;;;13.25;43.63;100073.03;5065768;28;20101;-70
2022/04/09 09:46:34;;;;;;;6.57;1.55;;;;;;;13.05;40.33;100077.06;5065549;28;20364;-70
2022/04/09 09:49:00;;;;;;;3.25;1.50;;;;;;;11.97;41.92;100082.03;5065487;28;20048;-70
2022/04/09 09:51:27;;;;;;;5.07;1.63;;;;;;;11.04;43.94;100092.59;5066836;28;20530;-70
2022/04/09 09:54:05;;;;;;;6.70;1.58;;;;;;;10.26;43.84;100098.38;5066257;28;20123;-70
2022/04/09 09:56:35;;;;;;;5.05;1.77;;;;;;;11.40;45.58;100099.88;5064374;28;20054;-70
2022/04/09 09:59:02;;;;;;;4.57;1.58;;;;;;;11.92;42.59;100080.69;5066994;28;20136;-67
2022/04/09 10:01:28;;;;;;;6.68;1.90;;;;;;;11.85;43.44;100097.81;5069275;28;20504;-67
2022/04/09 10:03:55;;;;;;;8.10;2.38;;;;;;;11.89;42.74;100091.41;5069729;28;20052;-67
2022/04/09 10:06:21;;;;;;;4.70;1.88;;;;;;;12.44;42.12;100088.47;5071088;28;20099;-67
2022/04/09 10:08:48;;;;;;;6.10;1.55;;;;;;;12.87;42.26;100084.50;5069743;28;20048;-67
2022/04/09 10:11:17;;;;;;;5.55;1.92;;;;;;;13.39;41.90;100099.19;5068090;28;20518;-68
2022/04/09 10:13:47;;;;;;;4.50;1.40;;;;;;;12.93;40.71;100094.59;5069914;28;20051;-67
2022/04/09 10:16:18;;;;;;;12.25;1.77;;;;;;;11.42;44.88;100105.03;5071130;28;20052;-67
2022/04/09 10:18:48;;;;;;;6.97;1.98;;;;;;;11.70;47.29;100107.50;5070325;28;20662;-67
2022/04/09 10:21:15;;;;;;;3.63;2.05;;;;;;;11.89;44.78;100100.13;5070747;28;20106;-68
2022/04/09 10:23:43;;;;;;;5.50;1.55;;;;;;;12.31;44.22;100095.50;5070747;28;20067;-67
2022/04/09 10:26:10;;;;;;;3.83;1.50;;;;;;;12.39;42.58;100099.28;5070555;28;20492;-67
2022/04/09 10:28:40;;;;;;;5.93;1.50;;;;;;;13.17;42.69;100086.75;5070159;28;20040;-67
2022/04/09 10:31:32;;;;;;;3.70;1.55;;;;;;;14.30;42.53;100087.00;5069250;28;20048;-67
2022/04/09 10:34:00;;;;;;;4.78;1.42;;;;;;;14.58;38.73;100065.44;5063581;28;20477;-68
2022/04/09 10:37:02;;;;;;;4.28;1.70;;;;;;;14.46;39.43;100074.31;5069862;28;20488;-68
2022/04/09 10:39:36;;;;;;;7.30;1.92;;;;;;;14.15;40.48;100081.91;4983479;28;20396;-68
2022/04/09 10:42:03;;;;;;;5.28;1.40;;;;;;;13.95;37.36;100079.97;4987711;28;20499;-68
2022/04/09 10:44:53;;;;;;;6.85;1.55;;;;;;;12.81;39.31;100076.19;5028548;28;20048;-68
2022/04/09 10:47:19;;;;;;;1.95;1.10;;;;;;;11.74;42.80;100093.28;5070059;28;20044;-68
2022/04/09 10:50:11;;;;;;;2.17;1.00;;;;;;;10.64;47.55;100098.66;5068661;28;20472;-68
2022/04/09 10:52:39;;;;;;;4.13;1.50;;;;;;;11.46;49.19;100102.06;5069412;28;20044;-68
2022/04/09 10:55:24;;;;;;;11.85;1.52;;;;;;;12.42;44.89;100092.97;5066272;28;20043;-68
2022/04/09 10:57:53;;;;;;;9.30;1.63;;;;;;;12.52;43.99;100088.78;5068360;28;20048;-68
2022/04/09 11:00:33;;;;;;;3.03;1.35;;;;;;;12.18;44.17;100096.38;5066614;28;20048;-68
2022/04/09 11:03:13;;;;;;;3.50;1.35;;;;;;;11.73;47.39;100117.00;5070480;28;20660;-68
2022/04/09 11:05:41;;;;;;;5.45;1.67;;;;;;;11.70;48.82;100107.50;5049868;28;20099;-68
2022/04/09 11:08:08;;;;;;;4.82;1.30;;;;;;;12.09;49.95;100117.16;5062278;28;20110;-68
2022/04/09 11:10:35;;;;;;;4.78;1.30;;;;;;;12.64;47.38;100109.78;5066224;28;20523;-68
2022/04/09 11:13:02;;;;;;;4.78;1.80;;;;;;;12.56;46.09;100096.31;5069041;28;20046;-68
2022/04/09 11:15:29;;;;;;;6.00;2.03;;;;;;;13.15;45.64;100099.19;5069760;28;20048;-68
2022/04/09 11:18:00;;;;;;;5.50;1.95;;;;;;;13.33;46.19;100092.56;5069012;28;20074;-68
2022/04/09 11:20:32;;;;;;;6.00;1.92;;;;;;;14.40;47.75;100093.25;5052686;28;20055;-68
2022/04/09 11:23:08;;;;;;;5.88;1.50;;;;;;;14.54;41.70;100083.31;5067034;28;20045;-68
2022/04/09 11:25:35;;;;;;;2.03;0.95;;;;;;;13.37;39.58;100099.31;5069180;28;20059;-67
2022/04/09 11:28:06;;;;;;;2.88;1.38;;;;;;;13.23;42.17;100081.00;5068431;28;20562;-67
2022/04/09 11:30:34;;;;;;;4.60;1.30;;;;;;;13.62;40.65;100077.25;5068734;28;20083;-67
2022/04/09 11:33:00;;;;;;;2.63;1.10;;;;;;;14.58;41.02;100073.38;5069399;28;20675;-68
2022/04/09 11:35:26;;;;;;;2.85;1.15;;;;;;;13.97;40.73;100091.25;5069100;28;20048;-67
2022/04/09 11:37:53;;;;;;;4.32;1.20;;;;;;;13.99;40.50;100084.06;5069168;28;20491;-67
2022/04/09 11:40:21;;;;;;;3.45;1.60;;;;;;;13.88;40.15;100091.09;5068336;28;20094;-67